createdAt,value
2022-07-31T00:00:20.600Z,21.66
2022-07-31T00:02:46.585Z,21.68
2022-07-31T00:05:12.614Z,21.33
2022-07-31T00:07:38.591Z,21.30
2022-07-31T00:10:04.564Z,21.46
2022-07-31T00:12:30.593Z,21.63
2022-07-31T00:14:56.585Z,21.41
2022-07-31T00:17:22.557Z,21.80
2022-07-31T00:19:48.718Z,21.97
2022-07-31T00:22:15.416Z,21.78
2022-07-31T00:24:42.088Z,22.00
2022-07-31T00:27:08.137Z,22.19
2022-07-31T00:29:34.139Z,22.25
2022-07-31T00:32:00.102Z,22.29
2022-07-31T00:34:26.120Z,22.00
2022-07-31T00:36:52.131Z,21.89
2022-07-31T00:39:18.115Z,21.59
2022-07-31T00:41:44.160Z,21.79
2022-07-31T00:44:12.369Z,21.88
2022-07-31T00:46:38.585Z,21.75
2022-07-31T00:49:06.433Z,21.45
2022-07-31T00:51:32.437Z,21.67
2022-07-31T00:53:58.404Z,21.55
2022-07-31T00:56:25.515Z,21.52
2022-07-31T00:58:51.495Z,21.55
2022-07-31T01:01:17.500Z,21.75
2022-07-31T01:03:43.566Z,21.84
2022-07-31T01:06:09.533Z,21.86
2022-07-31T01:08:35.512Z,21.43
2022-07-31T01:11:01.529Z,21.63
2022-07-31T01:13:27.511Z,21.48
2022-07-31T01:15:53.479Z,21.54
2022-07-31T01:18:19.490Z,21.52
2022-07-31T01:20:45.455Z,21.45
2022-07-31T01:23:11.437Z,21.30
2022-07-31T01:25:37.459Z,21.43
2022-07-31T01:28:03.439Z,21.30
2022-07-31T01:30:30.922Z,21.06
2022-07-31T01:32:57.066Z,21.14
2022-07-31T01:35:23.035Z,20.87
2022-07-31T01:37:49.003Z,20.87
2022-07-31T01:40:15.048Z,21.13
2022-07-31T01:42:41.025Z,21.27
2022-07-31T01:45:07.001Z,21.21
2022-07-31T01:47:33.049Z,21.14
2022-07-31T01:49:59.531Z,21.09
2022-07-31T01:52:25.790Z,21.07
2022-07-31T01:54:51.844Z,21.01
2022-07-31T01:57:18.728Z,20.85
2022-07-31T01:59:46.303Z,20.87
2022-07-31T02:02:12.446Z,20.86
2022-07-31T02:04:38.417Z,20.89
2022-07-31T02:07:04.414Z,20.46
2022-07-31T02:09:30.428Z,20.70
2022-07-31T02:11:56.417Z,20.64
2022-07-31T02:14:22.836Z,20.69
2022-07-31T02:16:48.861Z,20.68
2022-07-31T02:19:14.826Z,20.79
2022-07-31T02:21:40.792Z,20.76
2022-07-31T02:24:06.808Z,20.75
2022-07-31T02:26:32.792Z,20.70
2022-07-31T02:28:58.760Z,20.80
2022-07-31T02:31:26.814Z,20.59
2022-07-31T02:33:53.580Z,20.58
2022-07-31T02:36:19.582Z,20.56
2022-07-31T02:38:45.594Z,20.70
2022-07-31T02:41:11.567Z,20.70
2022-07-31T02:43:37.541Z,20.91
2022-07-31T02:46:03.587Z,20.81
2022-07-31T02:48:29.561Z,20.99
2022-07-31T02:50:55.531Z,21.09
2022-07-31T02:53:21.545Z,21.10
2022-07-31T02:55:47.542Z,20.88
2022-07-31T02:58:13.512Z,20.75
2022-07-31T03:00:39.631Z,20.62
2022-07-31T03:03:05.628Z,20.73
2022-07-31T03:05:31.603Z,20.73
2022-07-31T03:07:58.423Z,20.79
2022-07-31T03:10:25.851Z,20.68
2022-07-31T03:12:51.872Z,20.68
2022-07-31T03:15:17.885Z,20.77
2022-07-31T03:17:43.850Z,20.70
2022-07-31T03:20:09.839Z,20.77
2022-07-31T03:22:35.856Z,20.67
2022-07-31T03:25:01.827Z,20.80
2022-07-31T03:27:27.842Z,20.72
2022-07-31T03:29:53.865Z,20.71
2022-07-31T03:32:19.827Z,20.67
2022-07-31T03:34:46.593Z,20.48
2022-07-31T03:37:13.539Z,20.49
2022-07-31T03:39:40.097Z,20.28
2022-07-31T03:42:06.366Z,20.43
2022-07-31T03:44:40.470Z,20.57
2022-07-31T03:47:06.434Z,20.50
2022-07-31T03:49:32.506Z,20.57
2022-07-31T03:51:58.595Z,20.29
2022-07-31T03:54:24.631Z,20.64
2022-07-31T03:56:50.615Z,20.46
2022-07-31T03:59:16.778Z,20.62
2022-07-31T04:01:57.316Z,20.76
2022-07-31T04:04:24.848Z,20.37
2022-07-31T04:06:50.822Z,20.40
2022-07-31T04:09:18.870Z,20.50
2022-07-31T04:11:45.236Z,20.39
2022-07-31T04:14:11.215Z,20.41
2022-07-31T04:16:37.188Z,20.39
2022-07-31T04:19:03.208Z,20.20
2022-07-31T04:21:29.198Z,20.49
2022-07-31T04:23:55.173Z,20.66
2022-07-31T04:26:26.117Z,20.58
2022-07-31T04:28:52.448Z,20.86
2022-07-31T04:31:18.423Z,20.90
2022-07-31T04:33:47.384Z,20.88
2022-07-31T04:36:29.277Z,20.92
2022-07-31T04:38:56.761Z,20.87
2022-07-31T04:41:25.364Z,21.02
2022-07-31T04:43:52.135Z,21.27
2022-07-31T04:46:18.187Z,21.30
2022-07-31T04:48:44.184Z,21.37
2022-07-31T04:51:11.005Z,21.36
2022-07-31T04:53:40.993Z,21.67
2022-07-31T04:56:06.956Z,22.10
2022-07-31T04:58:32.929Z,22.44
2022-07-31T05:00:58.950Z,22.51
2022-07-31T05:03:25.816Z,22.57
2022-07-31T05:05:53.047Z,22.67
2022-07-31T05:08:19.061Z,22.82
2022-07-31T05:10:45.850Z,23.07
2022-07-31T05:13:11.818Z,23.22
2022-07-31T05:15:37.873Z,23.58
2022-07-31T05:18:03.842Z,23.39
2022-07-31T05:20:29.828Z,23.41
2022-07-31T05:22:55.862Z,23.41
2022-07-31T05:25:23.054Z,23.29
2022-07-31T05:27:50.120Z,23.24
2022-07-31T05:30:16.212Z,23.33
2022-07-31T05:32:42.200Z,23.03
2022-07-31T05:35:08.175Z,23.13
2022-07-31T05:37:35.880Z,23.17
2022-07-31T05:40:01.841Z,23.47
2022-07-31T05:42:27.829Z,23.99
2022-07-31T05:44:53.931Z,24.57
2022-07-31T05:47:19.920Z,24.79
2022-07-31T05:49:45.925Z,25.07
2022-07-31T05:52:11.953Z,25.46
2022-07-31T05:54:37.931Z,25.83
2022-07-31T05:57:03.908Z,26.07
2022-07-31T05:59:29.927Z,25.96
2022-07-31T06:01:55.971Z,26.16
2022-07-31T06:04:22.776Z,26.44
2022-07-31T06:06:49.675Z,26.64
2022-07-31T06:09:15.664Z,27.04
2022-07-31T06:11:42.388Z,27.29
2022-07-31T06:14:09.297Z,27.39
2022-07-31T06:16:35.995Z,27.56
2022-07-31T06:19:01.979Z,27.15
2022-07-31T06:21:30.738Z,27.35
2022-07-31T06:23:57.814Z,27.40
2022-07-31T06:26:26.807Z,27.48
2022-07-31T06:28:53.789Z,27.83
2022-07-31T06:31:19.855Z,28.13
2022-07-31T06:33:48.242Z,28.12
2022-07-31T06:36:14.647Z,28.30
2022-07-31T06:38:40.617Z,28.51
2022-07-31T06:41:06.590Z,28.00
2022-07-31T06:43:32.610Z,28.47
2022-07-31T06:45:58.589Z,28.90
2022-07-31T06:48:24.560Z,28.95
2022-07-31T06:51:08.515Z,29.41
2022-07-31T06:53:39.247Z,29.51
2022-07-31T06:56:05.259Z,29.60
2022-07-31T06:58:31.224Z,29.40
2022-07-31T07:00:57.224Z,29.61
2022-07-31T07:03:24.088Z,29.33
2022-07-31T07:05:50.058Z,29.46
2022-07-31T07:08:16.060Z,29.25
2022-07-31T07:10:42.097Z,29.65
2022-07-31T07:13:08.064Z,29.76
2022-07-31T07:15:34.044Z,29.80
2022-07-31T07:18:00.077Z,29.36
2022-07-31T07:20:26.056Z,29.28
2022-07-31T07:22:52.041Z,29.63
2022-07-31T07:25:18.088Z,29.67
2022-07-31T07:27:44.065Z,29.88
2022-07-31T07:30:10.062Z,30.04
2022-07-31T07:32:36.106Z,29.87
2022-07-31T07:35:02.096Z,29.89
2022-07-31T07:37:28.082Z,30.17
2022-07-31T07:39:54.095Z,30.43
2022-07-31T07:42:20.059Z,30.18
2022-07-31T07:44:46.050Z,30.24
2022-07-31T07:47:12.268Z,30.43
2022-07-31T07:49:39.012Z,30.33
2022-07-31T07:52:05.795Z,30.59
2022-07-31T07:54:31.823Z,30.52
2022-07-31T07:56:57.816Z,30.42
2022-07-31T07:59:25.151Z,30.74
2022-07-31T08:01:51.171Z,30.63
2022-07-31T08:04:17.135Z,30.99
2022-07-31T08:06:43.131Z,30.94
2022-07-31T08:09:09.153Z,30.86
2022-07-31T08:11:35.121Z,30.81
2022-07-31T08:14:01.100Z,30.54
2022-07-31T08:16:27.127Z,30.41
2022-07-31T08:18:53.110Z,30.74
2022-07-31T08:21:19.100Z,30.79
2022-07-31T08:23:45.117Z,30.59
2022-07-31T08:26:11.568Z,30.51
2022-07-31T08:28:39.127Z,30.47
2022-07-31T08:31:05.179Z,30.40
2022-07-31T08:33:31.165Z,30.57
2022-07-31T08:35:57.267Z,30.70
2022-07-31T08:38:26.041Z,30.74
2022-07-31T08:40:52.751Z,30.64
2022-07-31T08:44:00.705Z,30.85
2022-07-31T08:46:05.552Z,30.50
2022-07-31T08:48:32.220Z,31.21
2022-07-31T08:50:58.218Z,31.52
2022-07-31T08:53:25.251Z,31.45
2022-07-31T08:55:56.722Z,31.48
2022-07-31T08:58:24.855Z,31.31
2022-07-31T09:00:51.041Z,31.50
2022-07-31T09:03:17.040Z,31.68
2022-07-31T09:05:43.039Z,31.69
2022-07-31T09:08:14.814Z,31.95
2022-07-31T09:10:43.941Z,31.90
2022-07-31T09:13:15.091Z,31.44
2022-07-31T09:15:41.367Z,31.69
2022-07-31T09:18:07.459Z,32.24
2022-07-31T09:20:34.193Z,32.37
2022-07-31T09:23:00.168Z,32.33
2022-07-31T09:25:26.143Z,32.00
2022-07-31T09:27:52.172Z,31.63
2022-07-31T09:30:18.151Z,31.39
2022-07-31T09:32:44.130Z,31.89
2022-07-31T09:35:10.187Z,32.43
2022-07-31T09:37:36.163Z,32.55
2022-07-31T09:40:02.126Z,32.54
2022-07-31T09:42:28.147Z,32.85
2022-07-31T09:44:54.857Z,32.97
2022-07-31T09:47:20.847Z,32.59
2022-07-31T09:49:47.826Z,32.43
2022-07-31T09:52:14.099Z,32.33
2022-07-31T09:54:40.096Z,32.40
2022-07-31T09:57:06.423Z,32.56
2022-07-31T09:59:32.625Z,32.45
2022-07-31T10:01:58.609Z,32.67
2022-07-31T10:04:25.455Z,33.26
2022-07-31T10:06:51.432Z,33.63
2022-07-31T10:09:17.407Z,33.44
2022-07-31T10:11:43.419Z,33.83
2022-07-31T10:14:09.393Z,33.11
2022-07-31T10:16:35.997Z,33.53
2022-07-31T10:19:02.029Z,33.92
2022-07-31T10:21:28.000Z,33.19
2022-07-31T10:23:53.995Z,32.75
2022-07-31T10:26:20.025Z,33.27
2022-07-31T10:28:45.996Z,33.38
2022-07-31T10:31:11.969Z,33.49
2022-07-31T10:33:45.348Z,33.82
2022-07-31T10:36:11.387Z,33.59
2022-07-31T10:38:38.489Z,33.48
2022-07-31T10:41:05.183Z,34.26
2022-07-31T10:43:31.684Z,34.32
2022-07-31T10:45:58.659Z,33.71
2022-07-31T10:48:25.133Z,33.17
2022-07-31T10:50:51.112Z,33.73
2022-07-31T10:53:17.131Z,34.05
2022-07-31T10:55:43.099Z,34.19
2022-07-31T10:58:09.088Z,34.75
2022-07-31T11:00:35.110Z,34.44
2022-07-31T11:03:01.090Z,34.60
2022-07-31T11:05:27.576Z,34.31
2022-07-31T11:07:54.456Z,34.33
2022-07-31T11:10:21.167Z,34.52
2022-07-31T11:12:47.431Z,34.21
2022-07-31T11:15:13.497Z,34.53
2022-07-31T11:18:22.299Z,34.87
2022-07-31T11:20:25.999Z,35.07
2022-07-31T11:22:52.020Z,35.10
2022-07-31T11:25:17.992Z,35.32
2022-07-31T11:27:44.008Z,35.20
2022-07-31T11:30:13.528Z,35.18
2022-07-31T11:32:39.779Z,35.46
2022-07-31T11:35:05.814Z,35.59
2022-07-31T11:37:46.466Z,35.57
2022-07-31T11:40:17.821Z,35.64
2022-07-31T11:42:43.807Z,36.15
2022-07-31T11:45:12.351Z,36.07
2022-07-31T11:48:10.975Z,36.05
2022-07-31T11:50:25.447Z,35.65
2022-07-31T11:52:51.456Z,36.03
2022-07-31T11:55:17.428Z,36.38
2022-07-31T11:57:51.835Z,36.37
2022-07-31T12:00:26.288Z,36.21
2022-07-31T12:02:53.394Z,36.46
2022-07-31T12:05:19.585Z,36.70
2022-07-31T12:08:04.474Z,36.56
2022-07-31T12:10:31.380Z,35.30
2022-07-31T12:12:59.548Z,34.90
2022-07-31T12:15:26.242Z,35.30
2022-07-31T12:17:52.295Z,35.55
2022-07-31T12:20:29.960Z,35.76
2022-07-31T12:23:00.841Z,35.23
2022-07-31T12:25:26.819Z,34.36
2022-07-31T12:27:52.800Z,34.13
2022-07-31T12:30:18.810Z,33.82
2022-07-31T12:32:45.360Z,34.10
2022-07-31T12:35:11.325Z,35.00
2022-07-31T12:37:37.365Z,35.05
2022-07-31T12:40:03.399Z,34.47
2022-07-31T12:42:30.415Z,34.37
2022-07-31T12:44:57.345Z,34.71
2022-07-31T12:47:26.329Z,34.58
2022-07-31T12:49:52.459Z,34.86
2022-07-31T12:52:19.585Z,34.27
2022-07-31T12:54:45.571Z,34.62
2022-07-31T12:57:11.552Z,34.71
2022-07-31T12:59:37.582Z,34.87
2022-07-31T13:02:04.443Z,34.41
2022-07-31T13:04:31.911Z,33.72
2022-07-31T13:06:58.766Z,33.87
2022-07-31T13:09:25.030Z,33.68
2022-07-31T13:11:55.801Z,33.30
2022-07-31T13:14:25.291Z,33.51
2022-07-31T13:16:51.261Z,33.56
2022-07-31T13:19:17.615Z,33.05
2022-07-31T13:21:49.000Z,32.91
2022-07-31T13:24:16.610Z,33.75
2022-07-31T13:26:42.570Z,34.51
2022-07-31T13:29:08.587Z,34.19
2022-07-31T13:31:34.565Z,34.38
2022-07-31T13:34:00.536Z,34.05
2022-07-31T13:36:26.562Z,33.83
2022-07-31T13:38:52.540Z,34.73
2022-07-31T13:41:18.554Z,35.22
2022-07-31T13:43:59.846Z,34.89
2022-07-31T13:46:26.772Z,35.20
2022-07-31T13:48:52.922Z,35.62
2022-07-31T13:51:19.683Z,35.66
2022-07-31T13:53:51.820Z,36.01
2022-07-31T13:56:39.039Z,35.78
2022-07-31T13:59:06.207Z,35.85
2022-07-31T14:02:02.813Z,35.88
2022-07-31T14:04:23.422Z,36.01
2022-07-31T14:06:51.821Z,36.55
2022-07-31T14:09:18.647Z,36.54
2022-07-31T14:11:44.619Z,36.47
2022-07-31T14:14:11.752Z,36.01
2022-07-31T14:16:38.919Z,35.53
2022-07-31T14:19:05.688Z,35.67
2022-07-31T14:21:32.627Z,34.93
2022-07-31T14:23:58.604Z,34.95
2022-07-31T14:26:25.125Z,34.40
2022-07-31T14:28:51.152Z,34.37
2022-07-31T14:31:17.156Z,34.51
2022-07-31T14:33:43.149Z,34.32
2022-07-31T14:36:09.207Z,33.80
2022-07-31T14:38:35.195Z,33.33
2022-07-31T14:41:01.167Z,33.56
2022-07-31T14:43:27.180Z,33.95
2022-07-31T14:45:53.153Z,34.26
2022-07-31T14:48:19.136Z,34.29
2022-07-31T14:50:45.180Z,35.01
2022-07-31T14:53:11.153Z,34.81
2022-07-31T14:55:37.124Z,34.51
2022-07-31T14:58:03.153Z,33.87
2022-07-31T15:00:29.140Z,33.61
2022-07-31T15:02:55.129Z,33.94
2022-07-31T15:06:51.061Z,33.76
2022-07-31T15:08:07.115Z,33.27
2022-07-31T15:10:33.137Z,33.44
2022-07-31T15:12:59.115Z,33.43
2022-07-31T15:15:26.299Z,33.20
2022-07-31T15:17:55.559Z,33.23
2022-07-31T15:20:21.548Z,33.75
2022-07-31T15:22:58.988Z,33.83
2022-07-31T15:25:28.243Z,34.66
2022-07-31T15:27:54.228Z,34.22
2022-07-31T15:30:20.250Z,34.79
2022-07-31T15:32:46.224Z,34.87
2022-07-31T15:35:12.199Z,34.68
2022-07-31T15:37:38.228Z,34.52
2022-07-31T15:40:04.314Z,34.66
2022-07-31T15:42:30.395Z,34.66
2022-07-31T15:44:56.441Z,34.69
2022-07-31T15:47:22.415Z,35.02
2022-07-31T15:49:48.452Z,34.66
2022-07-31T15:52:14.533Z,33.77
2022-07-31T15:54:46.616Z,33.44
2022-07-31T15:57:12.634Z,33.93
2022-07-31T15:59:38.646Z,34.21
2022-07-31T16:02:05.748Z,34.36
2022-07-31T16:04:31.779Z,34.12
2022-07-31T16:06:57.816Z,34.34
2022-07-31T16:09:25.747Z,34.09
2022-07-31T16:12:05.079Z,33.95
2022-07-31T16:14:31.749Z,33.90
2022-07-31T16:16:57.716Z,33.69
2022-07-31T16:19:23.864Z,32.80
2022-07-31T16:21:49.887Z,32.38
2022-07-31T16:24:15.949Z,32.00
2022-07-31T16:26:49.579Z,31.92
2022-07-31T16:29:17.711Z,31.99
2022-07-31T16:31:44.609Z,31.94
2022-07-31T16:34:11.369Z,32.08
2022-07-31T16:36:38.318Z,31.56
2022-07-31T16:39:19.859Z,31.88
2022-07-31T16:41:54.509Z,32.02
2022-07-31T16:44:21.374Z,32.00
2022-07-31T16:46:52.815Z,31.94
2022-07-31T16:49:31.930Z,32.13
2022-07-31T16:52:03.111Z,32.37
2022-07-31T16:54:29.244Z,32.33
2022-07-31T16:56:55.221Z,32.29
2022-07-31T16:59:21.298Z,32.27
2022-07-31T17:01:57.726Z,32.64
2022-07-31T17:04:27.143Z,32.87
2022-07-31T17:06:53.127Z,32.77
2022-07-31T17:09:19.112Z,32.68
2022-07-31T17:11:45.135Z,31.85
2022-07-31T17:14:11.117Z,31.73
2022-07-31T17:16:37.079Z,31.91
2022-07-31T17:19:05.776Z,31.89
2022-07-31T17:21:31.938Z,31.95
2022-07-31T17:23:58.983Z,31.78
2022-07-31T17:26:25.199Z,31.52
2022-07-31T17:28:55.083Z,31.14
2022-07-31T17:31:21.047Z,31.14
2022-07-31T17:33:54.849Z,31.15
2022-07-31T17:36:25.925Z,31.25
2022-07-31T17:38:52.401Z,31.31
2022-07-31T17:41:24.723Z,31.31
2022-07-31T17:43:53.059Z,31.08
2022-07-31T17:46:28.213Z,31.19
2022-07-31T17:49:00.900Z,31.19
2022-07-31T17:51:26.912Z,31.47
2022-07-31T17:54:00.306Z,31.48
2022-07-31T17:56:26.582Z,31.31
2022-07-31T17:58:52.613Z,31.31
2022-07-31T18:01:18.629Z,31.15
2022-07-31T18:03:44.723Z,31.22
2022-07-31T18:06:10.712Z,31.12
2022-07-31T18:08:36.690Z,30.81
2022-07-31T18:11:02.845Z,30.83
2022-07-31T18:13:28.822Z,30.71
2022-07-31T18:15:54.833Z,30.49
2022-07-31T18:18:21.750Z,30.32
2022-07-31T18:20:47.732Z,30.41
2022-07-31T18:23:14.326Z,30.24
2022-07-31T18:25:40.825Z,29.87
2022-07-31T18:28:07.467Z,30.04
2022-07-31T18:30:35.920Z,29.64
2022-07-31T18:33:04.686Z,29.48
2022-07-31T18:35:30.654Z,29.42
2022-07-31T18:37:57.011Z,29.44
2022-07-31T18:40:26.536Z,29.30
2022-07-31T18:42:52.529Z,29.18
2022-07-31T18:45:18.502Z,29.11
2022-07-31T18:47:47.544Z,29.02
2022-07-31T18:50:59.944Z,28.92
2022-07-31T18:53:00.568Z,28.95
2022-07-31T18:55:26.714Z,28.85
2022-07-31T18:57:55.873Z,28.72
2022-07-31T19:00:25.183Z,28.75
2022-07-31T19:02:51.171Z,28.48
2022-07-31T19:05:21.714Z,28.54
2022-07-31T19:07:48.867Z,28.46
2022-07-31T19:10:29.258Z,28.33
2022-07-31T19:15:47.607Z,28.00
2022-07-31T19:18:15.173Z,28.03
2022-07-31T19:20:58.842Z,27.93
2022-07-31T19:23:27.452Z,27.98
2022-07-31T19:26:02.718Z,27.89
2022-07-31T19:28:30.253Z,27.87
2022-07-31T19:30:56.240Z,27.84
2022-07-31T19:33:22.222Z,27.76
2022-07-31T19:35:58.535Z,27.65
2022-07-31T19:38:26.594Z,27.47
2022-07-31T19:40:53.426Z,27.34
2022-07-31T19:43:20.133Z,27.29
2022-07-31T19:46:00.598Z,27.33
2022-07-31T19:48:33.336Z,27.18
2022-07-31T19:50:59.316Z,27.06
2022-07-31T19:53:26.169Z,27.11
2022-07-31T19:55:52.190Z,27.00
2022-07-31T19:58:18.194Z,26.92
2022-07-31T20:00:44.181Z,27.03
2022-07-31T20:03:10.261Z,26.72
2022-07-31T20:05:36.288Z,26.51
2022-07-31T20:08:02.260Z,26.18
2022-07-31T20:10:28.305Z,26.32
2022-07-31T20:12:54.282Z,26.47
2022-07-31T20:15:20.258Z,26.64
2022-07-31T20:17:47.612Z,26.62
2022-07-31T20:20:15.560Z,26.67
2022-07-31T20:22:42.091Z,26.66
2022-07-31T20:27:58.857Z,26.58
2022-07-31T20:30:24.880Z,26.53
2022-07-31T20:32:50.847Z,26.89
2022-07-31T20:35:35.290Z,26.89
2022-07-31T20:38:03.449Z,26.72
2022-07-31T20:40:29.416Z,26.70
2022-07-31T20:42:55.399Z,26.58
2022-07-31T20:45:21.420Z,26.51
2022-07-31T20:47:47.391Z,26.70
2022-07-31T20:50:13.364Z,26.77
2022-07-31T20:52:39.384Z,26.82
2022-07-31T20:55:05.373Z,26.67
2022-07-31T20:57:31.345Z,26.72
2022-07-31T20:59:57.368Z,26.66
2022-07-31T21:02:23.523Z,26.73
2022-07-31T21:04:50.287Z,26.63
2022-07-31T21:07:16.356Z,26.54
2022-07-31T21:09:42.364Z,26.45
2022-07-31T21:12:08.485Z,26.34
2022-07-31T21:14:35.389Z,26.39
2022-07-31T21:17:01.402Z,26.54
2022-07-31T21:19:27.397Z,26.37
2022-07-31T21:21:53.460Z,26.28
2022-07-31T21:24:19.469Z,26.46
2022-07-31T21:26:45.432Z,26.36
2022-07-31T21:29:11.590Z,26.55
2022-07-31T21:31:37.692Z,26.61
2022-07-31T21:34:15.223Z,26.58
2022-07-31T21:36:41.191Z,26.48
2022-07-31T21:39:07.185Z,26.48
2022-07-31T21:41:38.727Z,26.49
2022-07-31T21:44:08.479Z,26.40
2022-07-31T21:46:38.417Z,26.33
2022-07-31T21:49:04.490Z,26.33
2022-07-31T21:51:30.520Z,26.36
2022-07-31T21:53:56.543Z,26.37
2022-07-31T21:56:22.510Z,26.17
2022-07-31T21:58:48.488Z,26.14
2022-07-31T22:01:14.531Z,26.24
2022-07-31T22:03:40.524Z,26.10
2022-07-31T22:06:06.496Z,26.11
2022-07-31T22:08:32.542Z,26.10
2022-07-31T22:10:58.508Z,25.82
2022-07-31T22:13:24.488Z,25.93
2022-07-31T22:15:59.977Z,26.01
2022-07-31T22:18:26.836Z,26.10
2022-07-31T22:20:53.771Z,25.91
2022-07-31T22:23:20.482Z,25.94
2022-07-31T22:25:46.783Z,25.89
2022-07-31T22:28:13.456Z,25.79
2022-07-31T22:30:40.196Z,25.88
2022-07-31T22:33:06.182Z,25.95
2022-07-31T22:35:32.203Z,25.80
2022-07-31T22:37:58.269Z,25.72
2022-07-31T22:40:24.255Z,25.79
2022-07-31T22:42:56.565Z,25.67
2022-07-31T22:45:24.166Z,25.67
2022-07-31T22:47:50.180Z,25.39
2022-07-31T22:50:16.167Z,25.44
2022-07-31T22:52:42.180Z,25.52
2022-07-31T22:55:08.200Z,25.41
2022-07-31T22:57:34.178Z,25.38
2022-07-31T23:00:00.169Z,25.30
2022-07-31T23:02:26.241Z,25.29
2022-07-31T23:04:52.253Z,25.43
2022-07-31T23:07:18.232Z,24.96
2022-07-31T23:09:44.242Z,25.03
2022-07-31T23:12:10.797Z,25.23
2022-07-31T23:14:37.422Z,25.14
2022-07-31T23:17:03.786Z,25.10
2022-07-31T23:19:29.784Z,24.63
2022-07-31T23:21:55.763Z,24.94
2022-07-31T23:24:21.793Z,24.94
2022-07-31T23:26:47.768Z,24.69
2022-07-31T23:29:13.749Z,24.96
2022-07-31T23:31:39.773Z,25.16
2022-07-31T23:34:05.762Z,25.41
2022-07-31T23:36:31.741Z,25.40
2022-07-31T23:38:57.773Z,25.39
2022-07-31T23:41:23.756Z,25.24
2022-07-31T23:43:54.407Z,25.10
2022-07-31T23:46:24.487Z,24.69
2022-07-31T23:48:53.085Z,25.04
2022-07-31T23:51:19.111Z,24.95
2022-07-31T23:53:47.005Z,25.01
2022-07-31T23:56:19.426Z,24.83
2022-07-31T23:58:45.778Z,24.79
